createdAt,value
2018-11-21T00:02:13.386Z,2.40
2018-11-21T00:05:01.342Z,2.27
2018-11-21T00:07:33.941Z,2.33
2018-11-21T00:10:01.304Z,2.03
2018-11-21T00:12:28.534Z,2.40
2018-11-21T00:14:55.608Z,2.93
2018-11-21T00:17:22.664Z,2.50
2018-11-21T00:19:49.787Z,2.13
2018-11-21T00:22:16.936Z,2.40
2018-11-21T00:24:44.012Z,2.13
2018-11-21T00:27:11.066Z,2.80
2018-11-21T00:29:38.214Z,3.57
2018-11-21T00:32:08.873Z,2.37
2018-11-21T00:34:36.092Z,2.70
2018-11-21T00:37:03.210Z,2.60
2018-11-21T00:39:30.304Z,2.27
2018-11-21T00:41:57.431Z,3.53
2018-11-21T00:44:24.521Z,2.80
2018-11-21T00:46:51.635Z,2.80
2018-11-21T00:49:18.734Z,2.40
2018-11-21T00:51:45.872Z,2.30
2018-11-21T00:54:13.006Z,2.23
2018-11-21T00:56:40.293Z,2.20
2018-11-21T00:59:07.389Z,3.17
2018-11-21T01:01:34.486Z,2.90
2018-11-21T01:04:01.699Z,2.10
2018-11-21T01:06:28.744Z,2.77
2018-11-21T01:08:55.799Z,2.10
2018-11-21T01:11:22.933Z,2.10
2018-11-21T01:13:50.033Z,2.40
2018-11-21T01:16:17.110Z,2.10
2018-11-21T01:18:44.205Z,2.33
2018-11-21T01:21:11.279Z,2.50
2018-11-21T01:23:38.373Z,2.13
2018-11-21T01:26:05.521Z,2.37
2018-11-21T01:28:32.669Z,2.30
2018-11-21T01:30:59.807Z,2.90
2018-11-21T01:33:26.886Z,2.53
2018-11-21T01:35:53.974Z,2.10
2018-11-21T01:38:21.578Z,2.40
2018-11-21T01:40:48.678Z,2.40
2018-11-21T01:43:15.851Z,2.70
2018-11-21T01:45:42.912Z,2.37
2018-11-21T01:48:10.229Z,2.53
2018-11-21T01:50:37.271Z,2.57
2018-11-21T01:53:04.349Z,2.17
2018-11-21T01:55:31.501Z,2.33
2018-11-21T01:57:58.549Z,2.30
2018-11-21T02:00:25.786Z,2.33
2018-11-21T02:02:52.839Z,2.27
2018-11-21T02:05:19.902Z,2.30
2018-11-21T02:07:47.020Z,2.20
2018-11-21T02:10:14.121Z,2.63
2018-11-21T02:12:41.193Z,2.27
2018-11-21T02:15:08.259Z,2.20
2018-11-21T02:17:35.397Z,2.13
2018-11-21T02:20:02.486Z,2.40
2018-11-21T02:22:29.575Z,2.50
2018-11-21T02:24:56.646Z,2.20
2018-11-21T02:27:23.749Z,2.07
2018-11-21T02:29:50.850Z,2.20
2018-11-21T02:32:17.968Z,2.20
2018-11-21T02:34:45.062Z,2.27
2018-11-21T02:37:12.161Z,2.23
2018-11-21T02:39:39.346Z,2.30
2018-11-21T02:42:06.432Z,2.47
2018-11-21T02:44:33.535Z,2.27
2018-11-21T02:47:00.659Z,1.90
2018-11-21T02:49:27.799Z,2.27
2018-11-21T02:51:54.883Z,2.13
2018-11-21T02:54:22.046Z,2.23
2018-11-21T02:57:24.399Z,2.60
2018-11-21T02:59:53.619Z,2.40
2018-11-21T03:02:20.730Z,2.40
2018-11-21T03:04:47.849Z,2.30
2018-11-21T03:07:14.946Z,2.40
2018-11-21T03:09:41.995Z,2.50
2018-11-21T03:12:09.407Z,2.17
2018-11-21T03:14:36.493Z,2.10
2018-11-21T03:17:04.025Z,2.30
2018-11-21T03:19:31.170Z,2.30
2018-11-21T03:21:58.331Z,2.20
2018-11-21T03:24:25.480Z,2.30
2018-11-21T03:26:52.934Z,2.70
2018-11-21T03:29:20.151Z,2.17
2018-11-21T03:31:47.206Z,2.30
2018-11-21T03:34:14.343Z,2.30
2018-11-21T03:36:48.126Z,2.40
2018-11-21T03:39:15.532Z,2.13
2018-11-21T03:41:42.703Z,2.50
2018-11-21T03:44:09.824Z,2.80
2018-11-21T03:46:36.946Z,2.30
2018-11-21T03:49:04.193Z,2.17
2018-11-21T03:51:31.301Z,2.57
2018-11-21T03:53:58.446Z,2.57
2018-11-21T03:56:25.501Z,2.07
2018-11-21T03:58:52.721Z,2.23
2018-11-21T04:01:19.818Z,2.63
2018-11-21T04:03:46.889Z,2.70
2018-11-21T04:06:13.986Z,2.40
2018-11-21T04:08:42.725Z,2.70
2018-11-21T04:11:08.265Z,2.40
2018-11-21T04:13:35.343Z,2.17
2018-11-21T04:16:02.503Z,2.17
2018-11-21T04:18:29.682Z,2.07
2018-11-21T04:20:56.756Z,2.53
2018-11-21T04:23:23.835Z,2.73
2018-11-21T04:25:50.926Z,2.27
2018-11-21T04:28:18.021Z,2.60
2018-11-21T04:30:45.100Z,2.50
2018-11-21T04:33:12.187Z,2.27
2018-11-21T04:35:39.293Z,2.07
2018-11-21T04:40:33.570Z,2.63
2018-11-21T04:43:00.679Z,2.20
2018-11-21T04:45:27.739Z,2.63
2018-11-21T04:47:55.959Z,2.20
2018-11-21T04:50:21.952Z,2.63
2018-11-21T04:52:49.074Z,2.10
2018-11-21T04:55:16.189Z,2.67
2018-11-21T04:57:43.334Z,2.07
2018-11-21T05:00:10.783Z,2.03
2018-11-21T05:02:37.944Z,2.90
2018-11-21T05:05:07.015Z,2.17
2018-11-21T05:07:34.119Z,2.10
2018-11-21T05:10:01.271Z,2.40
2018-11-21T05:12:28.368Z,2.43
2018-11-21T05:14:55.478Z,2.20
2018-11-21T05:17:22.606Z,2.40
2018-11-21T05:19:49.730Z,2.03
2018-11-21T05:22:16.937Z,2.57
2018-11-21T05:24:44.067Z,2.50
2018-11-21T05:27:11.123Z,2.10
2018-11-21T05:29:38.229Z,2.30
2018-11-21T05:32:05.372Z,2.03
2018-11-21T05:34:33.072Z,2.30
2018-11-21T05:37:00.349Z,2.50
2018-11-21T05:39:28.293Z,2.13
2018-11-21T05:41:56.766Z,2.50
2018-11-21T05:44:27.003Z,2.50
2018-11-21T05:46:53.734Z,2.40
2018-11-21T05:49:18.386Z,2.60
2018-11-21T05:51:45.542Z,2.17
2018-11-21T05:54:12.602Z,2.60
2018-11-21T05:56:39.866Z,2.23
2018-11-21T05:59:06.938Z,2.10
2018-11-21T06:01:34.046Z,2.60
2018-11-21T06:04:01.304Z,2.33
2018-11-21T06:06:28.392Z,1.80
2018-11-21T06:08:55.487Z,2.57
2018-11-21T06:11:22.529Z,2.40
2018-11-21T06:13:49.620Z,2.90
2018-11-21T06:16:16.730Z,2.83
2018-11-21T06:18:43.800Z,2.57
2018-11-21T06:21:10.997Z,4.07
2018-11-21T06:23:38.084Z,4.13
2018-11-21T06:26:05.399Z,3.13
2018-11-21T06:28:32.517Z,3.70
2018-11-21T06:30:59.636Z,3.80
2018-11-21T06:33:26.781Z,3.33
2018-11-21T06:35:53.881Z,3.33
2018-11-21T06:38:21.047Z,4.20
2018-11-21T06:40:48.249Z,3.40
2018-11-21T06:43:15.344Z,3.70
2018-11-21T06:45:42.393Z,3.67
2018-11-21T06:48:09.627Z,3.23
2018-11-21T06:50:36.773Z,3.40
2018-11-21T06:53:03.983Z,3.60
2018-11-21T06:55:31.027Z,4.13
2018-11-21T06:57:58.097Z,2.73
2018-11-21T07:00:25.248Z,3.53
2018-11-21T07:02:52.338Z,3.17
2018-11-21T07:05:19.517Z,3.50
2018-11-21T07:07:46.569Z,4.63
2018-11-21T07:10:14.628Z,3.53
2018-11-21T07:12:42.384Z,3.50
2018-11-21T07:15:09.500Z,2.97
2018-11-21T07:17:36.976Z,3.47
2018-11-21T07:20:06.076Z,3.80
2018-11-21T07:22:33.165Z,3.93
2018-11-21T07:25:00.265Z,4.50
2018-11-21T07:27:27.505Z,3.20
2018-11-21T07:29:54.589Z,3.90
2018-11-21T07:32:28.961Z,3.63
2018-11-21T07:34:56.526Z,3.60
2018-11-21T07:37:23.585Z,4.60
2018-11-21T07:39:50.666Z,4.17
2018-11-21T07:42:17.744Z,4.20
2018-11-21T07:44:44.865Z,4.57
2018-11-21T07:47:12.181Z,3.57
2018-11-21T07:49:39.245Z,4.80
2018-11-21T07:52:06.324Z,3.73
2018-11-21T07:54:33.442Z,3.80
2018-11-21T07:57:27.926Z,3.73
2018-11-21T08:00:46.434Z,4.37
2018-11-21T08:03:14.816Z,4.20
2018-11-21T08:05:44.467Z,3.37
2018-11-21T08:08:35.499Z,3.37
2018-11-21T08:11:20.537Z,3.63
2018-11-21T08:14:16.644Z,3.77
2018-11-21T08:17:06.395Z,3.73
2018-11-21T08:19:56.065Z,3.50
2018-11-21T08:22:57.834Z,3.40
2018-11-21T08:25:53.390Z,3.70
2018-11-21T08:28:30.444Z,3.10
2018-11-21T08:30:57.594Z,3.60
2018-11-21T08:33:24.658Z,3.60
2018-11-21T08:35:51.746Z,3.43
2018-11-21T08:38:18.872Z,3.67
2018-11-21T08:40:45.975Z,3.80
2018-11-21T08:43:13.129Z,3.40
2018-11-21T08:45:40.228Z,3.43
2018-11-21T08:48:07.532Z,3.20
2018-11-21T08:50:34.715Z,4.30
2018-11-21T08:53:02.471Z,3.10
2018-11-21T08:55:29.557Z,3.50
2018-11-21T08:57:56.682Z,3.00
2018-11-21T09:00:24.057Z,3.90
2018-11-21T09:02:51.223Z,3.33
2018-11-21T09:05:18.284Z,3.30
2018-11-21T09:07:45.384Z,3.70
2018-11-21T09:10:13.097Z,4.20
2018-11-21T09:12:40.479Z,4.27
2018-11-21T09:15:09.623Z,3.40
2018-11-21T09:17:36.693Z,3.43
2018-11-21T09:20:04.293Z,3.20
2018-11-21T09:22:31.546Z,3.43
2018-11-21T09:24:58.679Z,3.80
2018-11-21T09:27:25.766Z,3.70
2018-11-21T09:29:52.877Z,3.43
2018-11-21T09:32:19.969Z,3.50
2018-11-21T09:34:47.086Z,3.40
2018-11-21T09:37:14.179Z,3.40
2018-11-21T09:39:41.374Z,3.87
2018-11-21T09:42:08.462Z,3.60
2018-11-21T09:44:35.538Z,4.00
2018-11-21T09:47:02.698Z,3.60
2018-11-21T09:49:29.786Z,4.40
2018-11-21T09:51:56.835Z,4.03
2018-11-21T09:54:24.027Z,3.40
2018-11-21T09:56:51.105Z,4.10
2018-11-21T09:59:18.207Z,3.70
2018-11-21T10:02:23.149Z,3.50
2018-11-21T10:04:49.267Z,3.33
2018-11-21T10:07:16.300Z,3.50
2018-11-21T10:09:45.148Z,3.60
2018-11-21T10:12:12.279Z,3.10
2018-11-21T10:14:39.341Z,3.67
2018-11-21T10:17:06.437Z,3.30
2018-11-21T10:19:33.645Z,2.90
2018-11-21T10:22:00.891Z,4.10
2018-11-21T10:24:27.959Z,3.80
2018-11-21T10:26:55.037Z,3.50
2018-11-21T10:29:22.160Z,3.60
2018-11-21T10:31:49.258Z,3.73
2018-11-21T10:34:16.551Z,3.50
2018-11-21T10:36:43.606Z,3.27
2018-11-21T10:39:10.826Z,3.50
2018-11-21T10:41:37.980Z,3.40
2018-11-21T10:44:05.272Z,3.80
2018-11-21T10:46:32.437Z,3.20
2018-11-21T10:48:59.551Z,3.03
2018-11-21T10:51:26.720Z,3.80
2018-11-21T10:53:53.860Z,3.83
2018-11-21T10:56:20.974Z,2.93
2018-11-21T10:58:48.183Z,3.10
2018-11-21T11:01:46.903Z,3.60
2018-11-21T11:04:23.017Z,3.83
2018-11-21T11:07:12.625Z,3.70
2018-11-21T11:10:00.186Z,3.97
2018-11-21T11:12:44.986Z,4.17
2018-11-21T11:15:31.392Z,4.07
2018-11-21T11:18:36.069Z,3.40
2018-11-21T11:21:40.840Z,3.87
2018-11-21T11:24:42.628Z,3.40
2018-11-21T11:27:41.478Z,3.83
2018-11-21T11:30:26.769Z,4.07
2018-11-21T11:33:14.496Z,3.23
2018-11-21T11:35:59.815Z,4.07
2018-11-21T11:39:04.323Z,3.70
2018-11-21T11:41:53.416Z,4.30
2018-11-21T11:44:52.398Z,3.80
2018-11-21T11:47:38.998Z,3.63
2018-11-21T11:50:25.168Z,3.80
2018-11-21T11:53:11.316Z,4.23
2018-11-21T11:55:56.825Z,3.40
2018-11-21T11:58:42.855Z,4.33
2018-11-21T12:01:39.159Z,5.50
2018-11-21T12:04:27.163Z,4.30
2018-11-21T12:07:32.109Z,4.10
2018-11-21T12:10:21.937Z,4.90
2018-11-21T12:13:23.738Z,4.50
2018-11-21T12:16:28.324Z,4.90
2018-11-21T12:19:15.018Z,4.70
2018-11-21T12:22:16.767Z,4.67
2018-11-21T12:25:09.331Z,4.33
2018-11-21T12:27:41.346Z,4.40
2018-11-21T12:30:31.372Z,4.50
2018-11-21T12:33:16.488Z,5.17
2018-11-21T12:36:01.770Z,4.40
2018-11-21T12:38:48.415Z,4.23
2018-11-21T12:41:33.803Z,4.10
2018-11-21T12:44:20.431Z,4.37
2018-11-21T12:47:15.691Z,3.97
2018-11-21T12:50:02.482Z,4.47
2018-11-21T12:52:58.036Z,4.10
2018-11-21T12:55:47.280Z,4.23
2018-11-21T12:58:36.643Z,4.40
2018-11-21T13:01:24.731Z,4.40
2018-11-21T13:04:10.140Z,5.07
2018-11-21T13:07:05.331Z,4.13
2018-11-21T13:09:56.710Z,3.70
2018-11-21T13:12:50.386Z,4.53
2018-11-21T13:15:35.677Z,4.43
2018-11-21T13:18:25.190Z,4.67
2018-11-21T13:21:14.442Z,4.30
2018-11-21T13:23:59.742Z,4.40
2018-11-21T13:26:44.702Z,3.67
2018-11-21T13:29:37.073Z,4.47
2018-11-21T13:32:35.819Z,4.50
2018-11-21T13:35:21.135Z,4.73
2018-11-21T13:38:06.475Z,3.87
2018-11-21T13:40:53.140Z,4.20
2018-11-21T13:43:30.538Z,4.27
2018-11-21T13:46:15.770Z,4.23
2018-11-21T13:49:11.219Z,3.97
2018-11-21T13:51:56.431Z,4.33
2018-11-21T13:54:46.329Z,3.70
2018-11-21T13:57:13.442Z,3.97
2018-11-21T13:59:40.629Z,4.73
2018-11-21T14:02:07.888Z,4.33
2018-11-21T14:04:35.148Z,3.40
2018-11-21T14:07:02.370Z,3.53
2018-11-21T14:09:29.464Z,3.57
2018-11-21T14:11:56.533Z,3.73
2018-11-21T14:14:23.624Z,3.60
2018-11-21T14:16:50.723Z,4.60
2018-11-21T14:19:17.937Z,5.00
2018-11-21T14:21:44.981Z,4.37
2018-11-21T14:24:12.100Z,3.37
2018-11-21T14:26:39.313Z,4.17
2018-11-21T14:29:06.412Z,4.30
2018-11-21T14:31:33.507Z,3.87
2018-11-21T14:34:00.686Z,3.43
2018-11-21T14:36:27.991Z,4.90
2018-11-21T14:38:55.090Z,4.07
2018-11-21T14:41:22.252Z,4.30
2018-11-21T14:43:49.388Z,4.33
2018-11-21T14:46:16.557Z,4.13
2018-11-21T14:48:43.971Z,3.90
2018-11-21T14:51:14.290Z,3.77
2018-11-21T14:53:43.841Z,3.83
2018-11-21T14:56:12.262Z,4.37
2018-11-21T14:58:39.351Z,4.50
2018-11-21T15:01:06.742Z,4.83
2018-11-21T15:03:33.911Z,3.90
2018-11-21T15:06:02.378Z,3.90
2018-11-21T15:08:29.409Z,4.00
2018-11-21T15:10:56.706Z,4.07
2018-11-21T15:13:23.968Z,3.73
2018-11-21T15:15:54.278Z,4.40
2018-11-21T15:18:21.402Z,3.93
2018-11-21T15:20:51.094Z,4.60
2018-11-21T15:23:26.280Z,4.33
2018-11-21T15:25:53.786Z,4.17
2018-11-21T15:28:20.918Z,3.90
2018-11-21T15:30:48.013Z,4.40
2018-11-21T15:33:15.083Z,4.50
2018-11-21T15:35:42.301Z,5.13
2018-11-21T15:38:09.358Z,4.80
2018-11-21T15:40:36.420Z,4.77
2018-11-21T15:43:03.675Z,4.30
2018-11-21T15:45:30.793Z,4.13
2018-11-21T15:47:59.314Z,5.80
2018-11-21T15:50:27.009Z,4.10
2018-11-21T15:52:54.086Z,5.10
2018-11-21T15:55:21.256Z,4.30
2018-11-21T15:57:48.438Z,3.83
2018-11-21T16:00:17.834Z,4.40
2018-11-21T16:02:45.765Z,4.47
2018-11-21T16:05:13.202Z,5.17
2018-11-21T16:07:40.421Z,4.67
2018-11-21T16:10:10.109Z,4.43
2018-11-21T16:12:37.202Z,4.20
2018-11-21T16:15:07.192Z,4.60
2018-11-21T16:17:34.307Z,4.00
2018-11-21T16:20:01.421Z,4.63
2018-11-21T16:22:28.542Z,4.40
2018-11-21T16:24:55.697Z,3.60
2018-11-21T16:27:22.765Z,3.40
2018-11-21T16:29:49.967Z,4.37
2018-11-21T16:32:17.093Z,4.27
2018-11-21T16:34:44.171Z,4.00
2018-11-21T16:37:11.325Z,3.80
2018-11-21T16:39:38.485Z,4.50
2018-11-21T16:42:05.586Z,3.73
